Terminal Aerodrome Forecast
Issued by NWS

Home | Current Version | Previous Version | Text Only | Print | Product List | Glossary On
Versions: 1 2 3 4 5 6 7 8 9 10 11 12 13 14 15 16 17
016
FTUS45 KRIW 231739
TAFWRL
TAF
KWRL 231739Z 2318/2418 35012KT 6SM -RA BR SCT015 BKN025
      TEMPO 2319/2322 3SM -RA BR SCT010 BKN015
     FM232300 34011KT P6SM VCSH BKN040
     FM240300 30007KT P6SM SCT040 BKN090
     FM240800 VRB05KT P6SM SCT090
     FM241500 VRB06KT P6SM FEW070 SCT200=

USA.gov is the U.S. government's official web portal to all federal, state and local government web resources and services.